sensor_id;sensor_type;location;lat;lon;timestamp;temperature;humidity
75088;HTU21D;63664;44.868;40.600;2023-05-21T00:01:19;17.95;64.98
75088;HTU21D;63664;44.868;40.600;2023-05-21T00:03:49;17.93;64.98
75088;HTU21D;63664;44.868;40.600;2023-05-21T00:06:15;17.95;64.94
75088;HTU21D;63664;44.868;40.600;2023-05-21T00:08:45;17.96;65.00
75088;HTU21D;63664;44.868;40.600;2023-05-21T00:11:11;17.94;65.04
75088;HTU21D;63664;44.868;40.600;2023-05-21T00:13:39;17.94;65.13
75088;HTU21D;63664;44.868;40.600;2023-05-21T00:16:06;17.93;65.29
75088;HTU21D;63664;44.868;40.600;2023-05-21T00:18:32;17.91;65.40
75088;HTU21D;63664;44.868;40.600;2023-05-21T00:28:56;17.84;65.44
75088;HTU21D;63664;44.868;40.600;2023-05-21T00:31:25;17.80;65.82
75088;HTU21D;63664;44.868;40.600;2023-05-21T00:33:54;17.77;66.36
75088;HTU21D;63664;44.868;40.600;2023-05-21T00:36:23;17.73;66.99
75088;HTU21D;63664;44.868;40.600;2023-05-21T00:38:52;17.69;67.38
75088;HTU21D;63664;44.868;40.600;2023-05-21T00:41:18;17.63;68.01
75088;HTU21D;63664;44.868;40.600;2023-05-21T00:43:47;17.56;68.71
75088;HTU21D;63664;44.868;40.600;2023-05-21T00:46:19;17.50;69.52
75088;HTU21D;63664;44.868;40.600;2023-05-21T00:48:47;17.46;70.22
75088;HTU21D;63664;44.868;40.600;2023-05-21T00:51:15;17.39;71.03
75088;HTU21D;63664;44.868;40.600;2023-05-21T00:53:49;17.36;71.76
75088;HTU21D;63664;44.868;40.600;2023-05-21T00:56:20;17.32;72.28
75088;HTU21D;63664;44.868;40.600;2023-05-21T00:58:49;17.26;72.90
75088;HTU21D;63664;44.868;40.600;2023-05-21T01:01:17;17.21;73.41
75088;HTU21D;63664;44.868;40.600;2023-05-21T01:03:47;17.19;73.94
75088;HTU21D;63664;44.868;40.600;2023-05-21T01:06:13;17.15;74.38
75088;HTU21D;63664;44.868;40.600;2023-05-21T01:08:41;17.09;74.84
75088;HTU21D;63664;44.868;40.600;2023-05-21T01:11:08;17.05;75.20
75088;HTU21D;63664;44.868;40.600;2023-05-21T01:13:38;16.96;75.65
75088;HTU21D;63664;44.868;40.600;2023-05-21T01:16:07;16.91;75.82
75088;HTU21D;63664;44.868;40.600;2023-05-21T01:18:35;16.87;76.24
75088;HTU21D;63664;44.868;40.600;2023-05-21T01:21:04;16.80;76.44
75088;HTU21D;63664;44.868;40.600;2023-05-21T01:23:32;16.71;76.60
75088;HTU21D;63664;44.868;40.600;2023-05-21T01:25:59;16.62;76.82
75088;HTU21D;63664;44.868;40.600;2023-05-21T01:28:30;16.55;77.02
75088;HTU21D;63664;44.868;40.600;2023-05-21T01:31:09;16.48;77.31
75088;HTU21D;63664;44.868;40.600;2023-05-21T01:33:46;16.44;77.37
75088;HTU21D;63664;44.868;40.600;2023-05-21T01:36:21;16.39;77.53
75088;HTU21D;63664;44.868;40.600;2023-05-21T01:39:29;16.34;77.34
75088;HTU21D;63664;44.868;40.600;2023-05-21T01:41:59;16.27;77.39
75088;HTU21D;63664;44.868;40.600;2023-05-21T01:44:31;16.21;77.66
75088;HTU21D;63664;44.868;40.600;2023-05-21T01:47:02;16.15;77.89
75088;HTU21D;63664;44.868;40.600;2023-05-21T01:49:33;16.07;78.10
75088;HTU21D;63664;44.868;40.600;2023-05-21T01:52:02;16.05;77.69
75088;HTU21D;63664;44.868;40.600;2023-05-21T01:54:31;15.98;77.59
75088;HTU21D;63664;44.868;40.600;2023-05-21T01:57:00;15.92;77.79
75088;HTU21D;63664;44.868;40.600;2023-05-21T01:59:26;15.89;77.63
75088;HTU21D;63664;44.868;40.600;2023-05-21T02:01:56;15.87;77.55
75088;HTU21D;63664;44.868;40.600;2023-05-21T02:04:23;15.84;77.42
75088;HTU21D;63664;44.868;40.600;2023-05-21T02:06:52;15.78;77.31
75088;HTU21D;63664;44.868;40.600;2023-05-21T02:09:21;15.75;77.11
75088;HTU21D;63664;44.868;40.600;2023-05-21T02:11:47;15.74;77.02
75088;HTU21D;63664;44.868;40.600;2023-05-21T02:14:14;15.71;76.80
75088;HTU21D;63664;44.868;40.600;2023-05-21T02:16:41;15.67;76.60
75088;HTU21D;63664;44.868;40.600;2023-05-21T02:19:08;15.65;76.44
75088;HTU21D;63664;44.868;40.600;2023-05-21T02:21:37;15.63;76.26
75088;HTU21D;63664;44.868;40.600;2023-05-21T02:24:04;15.57;75.90
75088;HTU21D;63664;44.868;40.600;2023-05-21T02:26:30;15.55;75.90
75088;HTU21D;63664;44.868;40.600;2023-05-21T02:28:57;15.52;75.78
75088;HTU21D;63664;44.868;40.600;2023-05-21T02:31:25;15.49;75.56
75088;HTU21D;63664;44.868;40.600;2023-05-21T02:33:52;15.47;75.34
75088;HTU21D;63664;44.868;40.600;2023-05-21T02:36:18;15.46;75.18
75088;HTU21D;63664;44.868;40.600;2023-05-21T02:38:47;15.44;74.99
75088;HTU21D;63664;44.868;40.600;2023-05-21T02:41:15;15.43;74.93
75088;HTU21D;63664;44.868;40.600;2023-05-21T02:43:42;15.41;74.70
75088;HTU21D;63664;44.868;40.600;2023-05-21T02:46:08;15.42;74.40
75088;HTU21D;63664;44.868;40.600;2023-05-21T02:48:34;15.43;74.09
75088;HTU21D;63664;44.868;40.600;2023-05-21T02:51:01;15.43;73.73
75088;HTU21D;63664;44.868;40.600;2023-05-21T02:53:30;15.44;73.46
75088;HTU21D;63664;44.868;40.600;2023-05-21T02:55:58;15.42;73.25
75088;HTU21D;63664;44.868;40.600;2023-05-21T02:58:27;15.42;73.04
75088;HTU21D;63664;44.868;40.600;2023-05-21T03:00:54;15.40;72.80
75088;HTU21D;63664;44.868;40.600;2023-05-21T03:03:20;15.39;72.59
75088;HTU21D;63664;44.868;40.600;2023-05-21T03:05:46;15.37;72.35
75088;HTU21D;63664;44.868;40.600;2023-05-21T03:08:13;15.34;72.14
75088;HTU21D;63664;44.868;40.600;2023-05-21T03:10:39;15.36;72.06
75088;HTU21D;63664;44.868;40.600;2023-05-21T03:13:08;15.36;71.84
75088;HTU21D;63664;44.868;40.600;2023-05-21T03:15:34;15.33;71.84
75088;HTU21D;63664;44.868;40.600;2023-05-21T03:18:08;15.32;71.77
75088;HTU21D;63664;44.868;40.600;2023-05-21T03:20:34;15.30;71.80
75088;HTU21D;63664;44.868;40.600;2023-05-21T03:23:00;15.30;71.80
75088;HTU21D;63664;44.868;40.600;2023-05-21T03:25:29;15.31;71.80
75088;HTU21D;63664;44.868;40.600;2023-05-21T03:28:00;15.28;71.86
75088;HTU21D;63664;44.868;40.600;2023-05-21T03:30:42;15.27;71.90
75088;HTU21D;63664;44.868;40.600;2023-05-21T03:33:36;15.28;71.90
75088;HTU21D;63664;44.868;40.600;2023-05-21T03:36:16;15.27;71.86
75088;HTU21D;63664;44.868;40.600;2023-05-21T03:38:49;15.26;72.00
75088;HTU21D;63664;44.868;40.600;2023-05-21T03:41:21;15.26;71.90
75088;HTU21D;63664;44.868;40.600;2023-05-21T03:43:56;15.24;71.92
75088;HTU21D;63664;44.868;40.600;2023-05-21T03:46:28;15.25;71.96
75088;HTU21D;63664;44.868;40.600;2023-05-21T03:49:18;15.26;71.78
75088;HTU21D;63664;44.868;40.600;2023-05-21T03:51:47;15.30;71.71
75088;HTU21D;63664;44.868;40.600;2023-05-21T03:54:16;15.30;71.65
75088;HTU21D;63664;44.868;40.600;2023-05-21T03:56:45;15.31;71.68
75088;HTU21D;63664;44.868;40.600;2023-05-21T03:59:11;15.36;71.64
75088;HTU21D;63664;44.868;40.600;2023-05-21T04:01:41;15.41;71.46
75088;HTU21D;63664;44.868;40.600;2023-05-21T04:04:13;15.45;71.36
75088;HTU21D;63664;44.868;40.600;2023-05-21T04:06:42;15.45;71.41
75088;HTU21D;63664;44.868;40.600;2023-05-21T04:09:09;15.47;71.33
75088;HTU21D;63664;44.868;40.600;2023-05-21T04:11:39;15.47;71.26
75088;HTU21D;63664;44.868;40.600;2023-05-21T04:14:05;15.51;71.20
75088;HTU21D;63664;44.868;40.600;2023-05-21T04:16:34;15.53;71.05
75088;HTU21D;63664;44.868;40.600;2023-05-21T04:19:05;15.57;71.02
75088;HTU21D;63664;44.868;40.600;2023-05-21T04:21:31;15.60;70.88
75088;HTU21D;63664;44.868;40.600;2023-05-21T04:24:02;15.66;70.90
75088;HTU21D;63664;44.868;40.600;2023-05-21T04:26:42;15.70;70.87
75088;HTU21D;63664;44.868;40.600;2023-05-21T04:29:09;15.72;70.87
75088;HTU21D;63664;44.868;40.600;2023-05-21T04:31:38;15.75;70.93
75088;HTU21D;63664;44.868;40.600;2023-05-21T04:34:04;15.81;71.00
75088;HTU21D;63664;44.868;40.600;2023-05-21T04:36:34;15.87;71.06
75088;HTU21D;63664;44.868;40.600;2023-05-21T04:39:00;15.91;71.09
75088;HTU21D;63664;44.868;40.600;2023-05-21T04:41:30;15.95;71.11
75088;HTU21D;63664;44.868;40.600;2023-05-21T04:43:56;15.98;71.22
75088;HTU21D;63664;44.868;40.600;2023-05-21T04:46:27;16.03;71.22
75088;HTU21D;63664;44.868;40.600;2023-05-21T04:48:56;16.08;71.35
75088;HTU21D;63664;44.868;40.600;2023-05-21T04:51:30;16.15;71.57
75088;HTU21D;63664;44.868;40.600;2023-05-21T04:54:03;16.22;71.42
75088;HTU21D;63664;44.868;40.600;2023-05-21T04:56:34;16.28;71.45
75088;HTU21D;63664;44.868;40.600;2023-05-21T04:59:04;16.33;71.53
75088;HTU21D;63664;44.868;40.600;2023-05-21T05:01:35;16.37;71.70
75088;HTU21D;63664;44.868;40.600;2023-05-21T05:04:06;16.42;71.84
75088;HTU21D;63664;44.868;40.600;2023-05-21T05:06:32;16.49;71.85
75088;HTU21D;63664;44.868;40.600;2023-05-21T05:08:58;16.63;71.87
75088;HTU21D;63664;44.868;40.600;2023-05-21T05:11:25;16.75;71.85
75088;HTU21D;63664;44.868;40.600;2023-05-21T05:13:54;16.86;71.71
75088;HTU21D;63664;44.868;40.600;2023-05-21T05:16:24;16.96;71.64
75088;HTU21D;63664;44.868;40.600;2023-05-21T05:18:51;17.09;71.57
75088;HTU21D;63664;44.868;40.600;2023-05-21T07:43:26;24.40;56.30
75088;HTU21D;63664;44.868;40.600;2023-05-21T07:45:55;24.47;56.00
75088;HTU21D;63664;44.868;40.600;2023-05-21T07:48:26;24.46;55.42
75088;HTU21D;63664;44.868;40.600;2023-05-21T07:50:57;24.39;55.29
75088;HTU21D;63664;44.868;40.600;2023-05-21T07:53:27;24.23;55.10
75088;HTU21D;63664;44.868;40.600;2023-05-21T07:56:04;24.04;55.04
75088;HTU21D;63664;44.868;40.600;2023-05-21T07:58:34;24.03;54.84
75088;HTU21D;63664;44.868;40.600;2023-05-21T08:01:04;24.17;53.94
75088;HTU21D;63664;44.868;40.600;2023-05-21T08:03:31;24.13;53.30
75088;HTU21D;63664;44.868;40.600;2023-05-21T08:05:58;24.10;53.01
75088;HTU21D;63664;44.868;40.600;2023-05-21T08:08:24;24.10;52.34
75088;HTU21D;63664;44.868;40.600;2023-05-21T08:10:54;24.02;52.59
75088;HTU21D;63664;44.868;40.600;2023-05-21T08:13:23;24.01;53.25
75088;HTU21D;63664;44.868;40.600;2023-05-21T08:15:49;23.85;52.83
75088;HTU21D;63664;44.868;40.600;2023-05-21T08:18:19;23.70;52.78
75088;HTU21D;63664;44.868;40.600;2023-05-21T08:20:49;23.66;52.45
75088;HTU21D;63664;44.868;40.600;2023-05-21T08:23:21;23.55;52.10
75088;HTU21D;63664;44.868;40.600;2023-05-21T08:25:51;23.51;52.21
75088;HTU21D;63664;44.868;40.600;2023-05-21T08:28:21;23.55;52.01
75088;HTU21D;63664;44.868;40.600;2023-05-21T08:30:50;23.57;51.76
75088;HTU21D;63664;44.868;40.600;2023-05-21T08:33:17;23.55;51.87
75088;HTU21D;63664;44.868;40.600;2023-05-21T08:35:46;23.47;51.68
75088;HTU21D;63664;44.868;40.600;2023-05-21T08:38:35;23.40;51.76
75088;HTU21D;63664;44.868;40.600;2023-05-21T08:41:10;23.38;51.62
75088;HTU21D;63664;44.868;40.600;2023-05-21T08:43:37;23.46;51.37
75088;HTU21D;63664;44.868;40.600;2023-05-21T08:46:07;23.51;51.59
75088;HTU21D;63664;44.868;40.600;2023-05-21T08:48:39;23.42;51.52
75088;HTU21D;63664;44.868;40.600;2023-05-21T08:51:06;23.44;51.44
75088;HTU21D;63664;44.868;40.600;2023-05-21T08:53:52;23.38;51.70
75088;HTU21D;63664;44.868;40.600;2023-05-21T08:56:21;23.34;51.58
75088;HTU21D;63664;44.868;40.600;2023-05-21T08:58:55;23.28;51.54
75088;HTU21D;63664;44.868;40.600;2023-05-21T09:01:31;23.22;51.82
75088;HTU21D;63664;44.868;40.600;2023-05-21T09:04:18;23.25;52.11
75088;HTU21D;63664;44.868;40.600;2023-05-21T09:06:48;23.39;51.79
75088;HTU21D;63664;44.868;40.600;2023-05-21T09:09:30;23.45;51.45
75088;HTU21D;63664;44.868;40.600;2023-05-21T09:12:01;23.40;51.43
75088;HTU21D;63664;44.868;40.600;2023-05-21T09:14:27;23.41;51.56
75088;HTU21D;63664;44.868;40.600;2023-05-21T09:17:02;23.42;51.64
75088;HTU21D;63664;44.868;40.600;2023-05-21T09:19:31;23.43;51.62
75088;HTU21D;63664;44.868;40.600;2023-05-21T09:22:04;23.42;51.46
75088;HTU21D;63664;44.868;40.600;2023-05-21T09:24:32;23.38;51.69
75088;HTU21D;63664;44.868;40.600;2023-05-21T09:26:59;23.35;51.75
75088;HTU21D;63664;44.868;40.600;2023-05-21T09:29:25;23.37;51.88
75088;HTU21D;63664;44.868;40.600;2023-05-21T09:31:52;23.43;51.55
75088;HTU21D;63664;44.868;40.600;2023-05-21T09:34:20;23.57;51.18
75088;HTU21D;63664;44.868;40.600;2023-05-21T09:36:50;23.62;50.95
75088;HTU21D;63664;44.868;40.600;2023-05-21T09:39:29;23.62;51.03
75088;HTU21D;63664;44.868;40.600;2023-05-21T09:42:02;23.68;51.01
75088;HTU21D;63664;44.868;40.600;2023-05-21T09:44:29;24.00;50.43
75088;HTU21D;63664;44.868;40.600;2023-05-21T09:46:58;24.45;49.72
75088;HTU21D;63664;44.868;40.600;2023-05-21T09:49:27;24.46;49.63
75088;HTU21D;63664;44.868;40.600;2023-05-21T09:51:55;24.43;49.67
75088;HTU21D;63664;44.868;40.600;2023-05-21T09:54:23;24.61;49.55
75088;HTU21D;63664;44.868;40.600;2023-05-21T09:56:55;24.89;49.03
75088;HTU21D;63664;44.868;40.600;2023-05-21T09:59:35;25.12;48.59
75088;HTU21D;63664;44.868;40.600;2023-05-21T10:02:02;25.15;48.53
75088;HTU21D;63664;44.868;40.600;2023-05-21T10:04:28;25.27;48.35
75088;HTU21D;63664;44.868;40.600;2023-05-21T10:06:58;25.50;48.00
75088;HTU21D;63664;44.868;40.600;2023-05-21T10:09:26;25.42;47.58
75088;HTU21D;63664;44.868;40.600;2023-05-21T10:11:56;25.36;48.11
75088;HTU21D;63664;44.868;40.600;2023-05-21T10:14:24;25.56;47.63
75088;HTU21D;63664;44.868;40.600;2023-05-21T10:16:55;25.49;47.56
75088;HTU21D;63664;44.868;40.600;2023-05-21T10:19:23;25.67;47.12
75088;HTU21D;63664;44.868;40.600;2023-05-21T10:21:51;25.80;46.57
75088;HTU21D;63664;44.868;40.600;2023-05-21T10:24:19;26.04;46.11
75088;HTU21D;63664;44.868;40.600;2023-05-21T10:26:46;26.31;46.02
75088;HTU21D;63664;44.868;40.600;2023-05-21T10:29:19;26.48;45.64
75088;HTU21D;63664;44.868;40.600;2023-05-21T10:31:48;26.47;45.48
75088;HTU21D;63664;44.868;40.600;2023-05-21T10:34:21;26.51;45.12
75088;HTU21D;63664;44.868;40.600;2023-05-21T10:36:50;26.50;44.96
75088;HTU21D;63664;44.868;40.600;2023-05-21T10:39:18;26.58;44.80
75088;HTU21D;63664;44.868;40.600;2023-05-21T10:58:27;26.76;42.93
75088;HTU21D;63664;44.868;40.600;2023-05-21T11:00:54;26.71;43.16
75088;HTU21D;63664;44.868;40.600;2023-05-21T11:03:21;26.70;42.46
75088;HTU21D;63664;44.868;40.600;2023-05-21T11:05:53;26.55;42.80
75088;HTU21D;63664;44.868;40.600;2023-05-21T11:08:24;26.39;43.22
75088;HTU21D;63664;44.868;40.600;2023-05-21T11:10:52;26.33;43.14
75088;HTU21D;63664;44.868;40.600;2023-05-21T11:13:22;26.37;43.33
75088;HTU21D;63664;44.868;40.600;2023-05-21T11:23:59;26.45;42.94
75088;HTU21D;63664;44.868;40.600;2023-05-21T11:29:31;26.63;42.44
75088;HTU21D;63664;44.868;40.600;2023-05-21T11:32:01;26.67;42.61
75088;HTU21D;63664;44.868;40.600;2023-05-21T11:39:49;26.20;42.83
75088;HTU21D;63664;44.868;40.600;2023-05-21T11:42:28;26.12;42.87
75088;HTU21D;63664;44.868;40.600;2023-05-21T11:44:56;26.13;42.67
75088;HTU21D;63664;44.868;40.600;2023-05-21T11:47:27;26.10;42.99
75088;HTU21D;63664;44.868;40.600;2023-05-21T11:49:55;26.28;42.84
75088;HTU21D;63664;44.868;40.600;2023-05-21T11:52:24;26.33;42.82
75088;HTU21D;63664;44.868;40.600;2023-05-21T11:54:54;26.42;42.70
75088;HTU21D;63664;44.868;40.600;2023-05-21T11:57:26;26.41;42.77
75088;HTU21D;63664;44.868;40.600;2023-05-21T11:59:56;26.42;42.87
75088;HTU21D;63664;44.868;40.600;2023-05-21T12:02:30;26.54;42.59
75088;HTU21D;63664;44.868;40.600;2023-05-21T12:04:57;26.45;42.49
75088;HTU21D;63664;44.868;40.600;2023-05-21T12:07:28;26.23;42.81
75088;HTU21D;63664;44.868;40.600;2023-05-21T12:09:59;26.18;43.02
75088;HTU21D;63664;44.868;40.600;2023-05-21T12:12:30;26.22;43.05
75088;HTU21D;63664;44.868;40.600;2023-05-21T12:14:57;26.32;42.97
75088;HTU21D;63664;44.868;40.600;2023-05-21T12:17:25;26.51;42.77
75088;HTU21D;63664;44.868;40.600;2023-05-21T12:19:53;26.63;42.66
75088;HTU21D;63664;44.868;40.600;2023-05-21T12:22:20;26.67;42.52
75088;HTU21D;63664;44.868;40.600;2023-05-21T12:24:49;26.66;42.83
75088;HTU21D;63664;44.868;40.600;2023-05-21T12:27:18;26.58;43.05
75088;HTU21D;63664;44.868;40.600;2023-05-21T12:29:48;26.49;43.24
75088;HTU21D;63664;44.868;40.600;2023-05-21T12:32:19;26.35;43.19
75088;HTU21D;63664;44.868;40.600;2023-05-21T12:34:50;26.22;43.58
75088;HTU21D;63664;44.868;40.600;2023-05-21T12:37:26;26.22;43.28
75088;HTU21D;63664;44.868;40.600;2023-05-21T12:39:58;26.05;43.49
75088;HTU21D;63664;44.868;40.600;2023-05-21T12:42:27;25.83;43.80
75088;HTU21D;63664;44.868;40.600;2023-05-21T12:44:56;25.78;43.91
75088;HTU21D;63664;44.868;40.600;2023-05-21T12:47:28;25.82;43.95
75088;HTU21D;63664;44.868;40.600;2023-05-21T12:50:03;26.04;43.87
75088;HTU21D;63664;44.868;40.600;2023-05-21T12:52:33;26.04;43.52
75088;HTU21D;63664;44.868;40.600;2023-05-21T12:55:01;25.95;43.64
75088;HTU21D;63664;44.868;40.600;2023-05-21T12:57:35;25.82;43.82
75088;HTU21D;63664;44.868;40.600;2023-05-21T13:00:03;25.73;44.25
75088;HTU21D;63664;44.868;40.600;2023-05-21T13:02:40;25.54;44.59
75088;HTU21D;63664;44.868;40.600;2023-05-21T13:05:10;25.45;44.85
75088;HTU21D;63664;44.868;40.600;2023-05-21T13:07:38;25.39;45.02
75088;HTU21D;63664;44.868;40.600;2023-05-21T13:10:05;25.31;45.14
75088;HTU21D;63664;44.868;40.600;2023-05-21T13:12:32;25.20;45.48
75088;HTU21D;63664;44.868;40.600;2023-05-21T13:15:03;25.13;45.67
75088;HTU21D;63664;44.868;40.600;2023-05-21T13:17:29;25.07;45.81
75088;HTU21D;63664;44.868;40.600;2023-05-21T13:20:13;25.04;45.86
75088;HTU21D;63664;44.868;40.600;2023-05-21T13:22:47;24.95;46.06
75088;HTU21D;63664;44.868;40.600;2023-05-21T13:25:18;24.97;46.01
75088;HTU21D;63664;44.868;40.600;2023-05-21T13:27:47;24.89;46.29
75088;HTU21D;63664;44.868;40.600;2023-05-21T13:30:17;24.83;46.39
75088;HTU21D;63664;44.868;40.600;2023-05-21T13:32:46;24.72;46.62
75088;HTU21D;63664;44.868;40.600;2023-05-21T15:26:49;22.12;52.72
75088;HTU21D;63664;44.868;40.600;2023-05-21T15:29:19;22.08;52.86
75088;HTU21D;63664;44.868;40.600;2023-05-21T15:31:45;22.06;53.04
75088;HTU21D;63664;44.868;40.600;2023-05-21T15:34:11;22.04;53.11
75088;HTU21D;63664;44.868;40.600;2023-05-21T15:36:40;22.03;53.22
75088;HTU21D;63664;44.868;40.600;2023-05-21T15:39:06;22.04;53.28
75088;HTU21D;63664;44.868;40.600;2023-05-21T15:41:39;22.03;53.28
75088;HTU21D;63664;44.868;40.600;2023-05-21T15:44:11;22.04;53.45
75088;HTU21D;63664;44.868;40.600;2023-05-21T15:46:42;22.04;53.55
75088;HTU21D;63664;44.868;40.600;2023-05-21T15:49:11;21.98;53.91
75088;HTU21D;63664;44.868;40.600;2023-05-21T15:51:40;21.93;54.41
75088;HTU21D;63664;44.868;40.600;2023-05-21T15:54:06;21.88;54.74
75088;HTU21D;63664;44.868;40.600;2023-05-21T15:56:37;21.80;55.26
75088;HTU21D;63664;44.868;40.600;2023-05-21T15:59:06;21.76;55.65
75088;HTU21D;63664;44.868;40.600;2023-05-21T16:01:35;21.70;56.00
75088;HTU21D;63664;44.868;40.600;2023-05-21T16:04:01;21.67;56.25
75088;HTU21D;63664;44.868;40.600;2023-05-21T16:06:28;21.64;56.52
75088;HTU21D;63664;44.868;40.600;2023-05-21T16:08:57;21.61;56.77
75088;HTU21D;63664;44.868;40.600;2023-05-21T16:11:24;21.59;56.96
75088;HTU21D;63664;44.868;40.600;2023-05-21T16:13:56;21.55;57.19
75088;HTU21D;63664;44.868;40.600;2023-05-21T16:16:28;21.54;57.30
75088;HTU21D;63664;44.868;40.600;2023-05-21T16:18:54;21.51;57.34
75088;HTU21D;63664;44.868;40.600;2023-05-21T16:21:20;21.47;57.59
75088;HTU21D;63664;44.868;40.600;2023-05-21T16:23:47;21.44;57.73
75088;HTU21D;63664;44.868;40.600;2023-05-21T16:26:13;21.40;57.84
75088;HTU21D;63664;44.868;40.600;2023-05-21T16:28:39;21.38;57.95
75088;HTU21D;63664;44.868;40.600;2023-05-21T16:31:06;21.36;58.17
75088;HTU21D;63664;44.868;40.600;2023-05-21T16:33:36;21.31;58.19
75088;HTU21D;63664;44.868;40.600;2023-05-21T16:36:02;21.30;58.22
75088;HTU21D;63664;44.868;40.600;2023-05-21T16:38:31;21.25;58.29
75088;HTU21D;63664;44.868;40.600;2023-05-21T16:40:57;21.23;58.38
75088;HTU21D;63664;44.868;40.600;2023-05-21T16:43:24;21.20;58.49
75088;HTU21D;63664;44.868;40.600;2023-05-21T16:45:51;21.16;58.67
75088;HTU21D;63664;44.868;40.600;2023-05-21T16:48:18;21.11;58.77
75088;HTU21D;63664;44.868;40.600;2023-05-21T16:50:44;21.09;58.72
75088;HTU21D;63664;44.868;40.600;2023-05-21T16:53:12;21.04;58.75
75088;HTU21D;63664;44.868;40.600;2023-05-21T16:55:41;21.01;58.79
75088;HTU21D;63664;44.868;40.600;2023-05-21T16:58:08;20.99;58.86
75088;HTU21D;63664;44.868;40.600;2023-05-21T17:00:38;20.95;59.06
75088;HTU21D;63664;44.868;40.600;2023-05-21T17:03:05;20.93;59.09
75088;HTU21D;63664;44.868;40.600;2023-05-21T17:05:33;20.92;59.25
75088;HTU21D;63664;44.868;40.600;2023-05-21T17:07:59;20.87;59.44
75088;HTU21D;63664;44.868;40.600;2023-05-21T17:10:26;20.86;59.70
75088;HTU21D;63664;44.868;40.600;2023-05-21T17:12:55;20.83;59.92
75088;HTU21D;63664;44.868;40.600;2023-05-21T17:15:21;20.80;60.21
75088;HTU21D;63664;44.868;40.600;2023-05-21T17:17:50;20.76;60.37
75088;HTU21D;63664;44.868;40.600;2023-05-21T17:20:16;20.73;60.54
75088;HTU21D;63664;44.868;40.600;2023-05-21T17:22:43;20.68;60.75
75088;HTU21D;63664;44.868;40.600;2023-05-21T17:25:13;20.62;60.95
75088;HTU21D;63664;44.868;40.600;2023-05-21T17:27:40;20.58;61.14
75088;HTU21D;63664;44.868;40.600;2023-05-21T17:30:07;20.56;61.29
75088;HTU21D;63664;44.868;40.600;2023-05-21T17:32:37;20.51;61.53
75088;HTU21D;63664;44.868;40.600;2023-05-21T17:35:04;20.47;61.65
75088;HTU21D;63664;44.868;40.600;2023-05-21T17:37:30;20.42;61.82
75088;HTU21D;63664;44.868;40.600;2023-05-21T17:40:01;20.39;62.02
75088;HTU21D;63664;44.868;40.600;2023-05-21T17:42:32;20.34;62.12
75088;HTU21D;63664;44.868;40.600;2023-05-21T17:44:59;20.30;62.18
75088;HTU21D;63664;44.868;40.600;2023-05-21T17:47:28;20.25;62.22
75088;HTU21D;63664;44.868;40.600;2023-05-21T17:49:58;20.16;62.26
75088;HTU21D;63664;44.868;40.600;2023-05-21T17:52:27;20.07;62.45
75088;HTU21D;63664;44.868;40.600;2023-05-21T17:54:56;20.03;62.56
75088;HTU21D;63664;44.868;40.600;2023-05-21T17:57:22;19.97;62.61
75088;HTU21D;63664;44.868;40.600;2023-05-21T17:59:49;19.94;62.71
75088;HTU21D;63664;44.868;40.600;2023-05-21T18:02:15;19.90;62.74
75088;HTU21D;63664;44.868;40.600;2023-05-21T18:04:44;19.85;62.90
75088;HTU21D;63664;44.868;40.600;2023-05-21T18:07:16;19.80;62.96
75088;HTU21D;63664;44.868;40.600;2023-05-21T18:09:42;19.77;62.98
75088;HTU21D;63664;44.868;40.600;2023-05-21T18:12:09;19.74;62.94
75088;HTU21D;63664;44.868;40.600;2023-05-21T18:14:38;19.70;62.98
75088;HTU21D;63664;44.868;40.600;2023-05-21T18:17:04;19.67;62.89
75088;HTU21D;63664;44.868;40.600;2023-05-21T18:19:33;19.60;62.92
75088;HTU21D;63664;44.868;40.600;2023-05-21T18:22:01;19.56;62.94
75088;HTU21D;63664;44.868;40.600;2023-05-21T18:24:29;19.50;62.89
75088;HTU21D;63664;44.868;40.600;2023-05-21T18:26:58;19.45;62.89
75088;HTU21D;63664;44.868;40.600;2023-05-21T18:29:26;19.41;62.89
75088;HTU21D;63664;44.868;40.600;2023-05-21T18:31:52;19.35;62.92
75088;HTU21D;63664;44.868;40.600;2023-05-21T18:34:24;19.31;62.91
75088;HTU21D;63664;44.868;40.600;2023-05-21T18:36:50;19.26;63.03
75088;HTU21D;63664;44.868;40.600;2023-05-21T18:39:19;19.22;63.00
75088;HTU21D;63664;44.868;40.600;2023-05-21T18:41:50;19.16;63.05
75088;HTU21D;63664;44.868;40.600;2023-05-21T18:44:18;19.12;63.06
75088;HTU21D;63664;44.868;40.600;2023-05-21T18:46:45;19.06;63.10
75088;HTU21D;63664;44.868;40.600;2023-05-21T18:49:14;18.99;63.22
75088;HTU21D;63664;44.868;40.600;2023-05-21T18:51:44;18.93;63.29
75088;HTU21D;63664;44.868;40.600;2023-05-21T18:54:10;18.92;63.27
75088;HTU21D;63664;44.868;40.600;2023-05-21T18:56:37;18.88;63.29
75088;HTU21D;63664;44.868;40.600;2023-05-21T18:59:03;18.85;63.33
75088;HTU21D;63664;44.868;40.600;2023-05-21T19:01:30;18.78;63.40
75088;HTU21D;63664;44.868;40.600;2023-05-21T19:03:59;18.73;63.52
75088;HTU21D;63664;44.868;40.600;2023-05-21T19:06:26;18.69;63.53
75088;HTU21D;63664;44.868;40.600;2023-05-21T19:08:55;18.67;63.55
75088;HTU21D;63664;44.868;40.600;2023-05-21T19:11:22;18.65;63.54
75088;HTU21D;63664;44.868;40.600;2023-05-21T19:13:48;18.58;63.65
75088;HTU21D;63664;44.868;40.600;2023-05-21T19:16:17;18.56;63.69
75088;HTU21D;63664;44.868;40.600;2023-05-21T19:18:45;18.53;63.77
75088;HTU21D;63664;44.868;40.600;2023-05-21T19:21:12;18.50;63.86
75088;HTU21D;63664;44.868;40.600;2023-05-21T19:23:41;18.48;63.93
75088;HTU21D;63664;44.868;40.600;2023-05-21T19:26:10;18.46;63.90
75088;HTU21D;63664;44.868;40.600;2023-05-21T19:28:39;18.40;64.01
75088;HTU21D;63664;44.868;40.600;2023-05-21T19:31:08;18.39;64.05
75088;HTU21D;63664;44.868;40.600;2023-05-21T19:33:35;18.37;64.08
75088;HTU21D;63664;44.868;40.600;2023-05-21T19:36:04;18.33;64.24
75088;HTU21D;63664;44.868;40.600;2023-05-21T19:38:30;18.32;64.21
75088;HTU21D;63664;44.868;40.600;2023-05-21T19:40:57;18.26;64.31
75088;HTU21D;63664;44.868;40.600;2023-05-21T19:43:23;18.21;64.47
75088;HTU21D;63664;44.868;40.600;2023-05-21T19:45:55;18.17;64.59
75088;HTU21D;63664;44.868;40.600;2023-05-21T19:48:21;18.15;64.66
75088;HTU21D;63664;44.868;40.600;2023-05-21T19:50:50;18.13;64.72
75088;HTU21D;63664;44.868;40.600;2023-05-21T19:53:16;18.11;64.79
75088;HTU21D;63664;44.868;40.600;2023-05-21T19:55:44;18.07;64.95
75088;HTU21D;63664;44.868;40.600;2023-05-21T19:58:14;18.05;65.00
75088;HTU21D;63664;44.868;40.600;2023-05-21T20:00:42;18.00;65.11
75088;HTU21D;63664;44.868;40.600;2023-05-21T20:03:12;17.99;65.21
75088;HTU21D;63664;44.868;40.600;2023-05-21T20:05:38;17.99;65.21
75088;HTU21D;63664;44.868;40.600;2023-05-21T20:08:04;17.97;65.26
75088;HTU21D;63664;44.868;40.600;2023-05-21T20:10:35;17.91;65.46